Back to Top

Language: 

My Weather Underground Personal Weather Station Historical Data with Graphs...

Delerius Weather Station Historical Data
Daily Summary for May 10, 2017 Units:  Metric    English   Both
« Previous Day
Next Day »
Daily Weekly Monthly Yearly Custom
  High: Low: Average:
Temperature: 19.1 °C 0.9 °C 11.8 °C
Dew Point: 7.1 °C -0.3 °C 4.4 °C
Humidity: 95 % 41 % 64 %
Wind Speed: 9.7 km/h 0 km/h 2.6 km/h
Wind Gust: 19.3 km/h - -
Wind:- - SSE
Pressure: 1015.1 hPa 1001.6 hPa -
Precipitation: 0 mm    
Historical Graphs
 
 
Tabular Data for May 10, 2017
Time Temperature Dew Point Pressure Wind Wind Speed Wind Gust Humidity Rainfall Rate (Hourly) solar Conditions
00:04 5.4 °C 2.7 °C 1015.1 hPa Calm   1.6 km/h 83 % 0 mm 0 W/m2
00:09 5.3 °C 2.7 °C 1015.1 hPa Calm   3.2 km/h 83 % 0 mm 0 W/m2
00:14 5.2 °C 2.6 °C 1015.1 hPa Calm   3.2 km/h 83 % 0 mm 0 W/m2
00:19 5.2 °C 2.7 °C 1014.8 hPa Calm   3.2 km/h 84 % 0 mm 0 W/m2
00:24 5.2 °C 2.9 °C 1014.8 hPa Calm   3.2 km/h 85 % 0 mm 0 W/m2
00:29 5.1 °C 2.8 °C 1014.8 hPa Calm     85 % 0 mm 0 W/m2
00:34 5.1 °C 2.8 °C 1014.8 hPa Calm     85 % 0 mm 0 W/m2
00:39 4.9 °C 2.6 °C 1014.4 hPa Calm     85 % 0 mm 0 W/m2
00:44 4.8 °C 2.5 °C 1014.4 hPa Calm     85 % 0 mm 0 W/m2
00:49 4.7 °C 2.4 °C 1014.4 hPa Calm     85 % 0 mm 0 W/m2
00:54 4.6 °C 2.4 °C 1014.4 hPa Calm     86 % 0 mm 0 W/m2
00:59 4.6 °C 2.4 °C 1014.4 hPa Calm     86 % 0 mm 0 W/m2
01:04 4.5 °C 2.3 °C 1014.4 hPa Calm     86 % 0 mm 0 W/m2
01:09 4.4 °C 2.3 °C 1014.4 hPa Calm     86 % 0 mm 0 W/m2
01:14 4.3 °C 2.2 °C 1014.1 hPa Calm     86 % 0 mm 0 W/m2
01:19 4.2 °C 2.2 °C 1014.1 hPa Calm     87 % 0 mm 0 W/m2
01:24 4.1 °C 2.1 °C 1014.1 hPa Calm     87 % 0 mm 0 W/m2
01:29 4.1 °C 2.1 °C 1014.1 hPa Calm     87 % 0 mm 0 W/m2
01:34 4 °C 2.1 °C 1014.1 hPa Calm     87 % 0 mm 0 W/m2
01:39 3.9 °C 1.9 °C 1014.1 hPa Calm   1.6 km/h 87 % 0 mm 0 W/m2
01:42 3.8 °C 1.8 °C 1013.8 hPa Calm   1.6 km/h 87 % 0 mm 0 W/m2
01:47 3.7 °C 1.7 °C 1013.8 hPa Calm   1.6 km/h 87 % 0 mm 0 W/m2
01:52 3.6 °C 1.8 °C 1013.8 hPa Calm     88 % 0 mm 0 W/m2
01:57 3.6 °C 1.8 °C 1013.8 hPa Calm     88 % 0 mm 0 W/m2
02:02 3.4 °C 1.6 °C 1013.8 hPa Calm     88 % 0 mm 0 W/m2
02:07 3.4 °C 1.6 °C 1013.4 hPa Calm     88 % 0 mm 0 W/m2
02:13 3.3 °C 1.7 °C 1013.4 hPa Calm     89 % 0 mm 0 W/m2
02:18 3.2 °C 1.6 °C 1013.4 hPa Calm     89 % 0 mm 0 W/m2
02:23 3.2 °C 1.6 °C 1013.1 hPa Calm     89 % 0 mm 0 W/m2
02:28 3.1 °C 1.4 °C 1013.1 hPa Calm     89 % 0 mm 0 W/m2
02:33 3.1 °C 1.4 °C 1013.1 hPa Calm     89 % 0 mm 0 W/m2
02:38 3 °C 1.4 °C 1013.1 hPa Calm     89 % 0 mm 0 W/m2
02:43 2.9 °C 1.3 °C 1013.1 hPa Calm     89 % 0 mm 0 W/m2
02:48 2.8 °C 1.2 °C 1013.1 hPa Calm     89 % 0 mm 0 W/m2
02:53 2.7 °C 1.2 °C 1013.1 hPa Calm     90 % 0 mm 0 W/m2
02:58 2.7 °C 1.2 °C 1012.8 hPa Calm   1.6 km/h 90 % 0 mm 0 W/m2
03:03 2.6 °C 1.1 °C 1012.8 hPa Calm   1.6 km/h 90 % 0 mm 0 W/m2
03:08 2.6 °C 1.1 °C 1012.8 hPa Calm     90 % 0 mm 0 W/m2
03:13 2.5 °C 1 °C 1012.8 hPa Calm     90 % 0 mm 0 W/m2
03:18 2.4 °C 0.9 °C 1012.4 hPa Calm     90 % 0 mm 0 W/m2
03:23 2.4 °C 0.9 °C 1012.4 hPa Calm     90 % 0 mm 0 W/m2
03:28 2.3 °C 1 °C 1012.4 hPa Calm     91 % 0 mm 0 W/m2
03:33 2.3 °C 0.8 °C 1012.4 hPa Calm     90 % 0 mm 0 W/m2
03:38 2.2 °C 0.9 °C 1012.4 hPa Calm     91 % 0 mm 0 W/m2
03:43 2.1 °C 0.8 °C 1012.4 hPa Calm     91 % 0 mm 0 W/m2
03:48 2 °C 0.7 °C 1012.4 hPa Calm     91 % 0 mm 0 W/m2
03:53 1.9 °C 0.6 °C 1012.1 hPa Calm     91 % 0 mm 0 W/m2
03:58 1.8 °C 0.5 °C 1012.1 hPa Calm     91 % 0 mm 0 W/m2
04:03 1.8 °C 0.5 °C 1012.1 hPa Calm     91 % 0 mm 0 W/m2
04:08 1.7 °C 0.4 °C 1012.1 hPa Calm     91 % 0 mm 0 W/m2
04:13 1.6 °C 0.3 °C 1012.1 hPa Calm     91 % 0 mm 0 W/m2
04:18 1.6 °C 0.3 °C 1012.1 hPa Calm     91 % 0 mm 0 W/m2
04:19 1.6 °C 0.3 °C 1012.1 hPa Calm     91 % 0 mm 0 W/m2
04:24 1.5 °C 0.2 °C 1012.1 hPa Calm     91 % 0 mm 0 W/m2
04:29 1.4 °C 0.1 °C 1011.7 hPa Calm     91 % 0 mm 0 W/m2
04:34 1.4 °C 0.1 °C 1011.7 hPa Calm     91 % 0 mm 0 W/m2
04:39 1.3 °C 0.2 °C 1011.7 hPa Calm     92 % 0 mm 0 W/m2
04:44 1.3 °C 0.2 °C 1011.7 hPa Calm     92 % 0 mm 0 W/m2
04:49 1.3 °C 0.2 °C 1011.7 hPa Calm     92 % 0 mm 0 W/m2
04:54 1.3 °C 0.2 °C 1011.4 hPa Calm     92 % 0 mm 0 W/m2
05:00 1.3 °C 0.2 °C 1011.4 hPa Calm     92 % 0 mm 0 W/m2
05:05 1.2 °C 0.1 °C 1011.4 hPa Calm     92 % 0 mm 0 W/m2
05:10 1.2 °C 0.1 °C 1011.4 hPa Calm     92 % 0 mm 0 W/m2
05:15 1.1 °C -0.1 °C 1011.1 hPa Calm     92 % 0 mm 0 W/m2
05:20 1 °C -0.2 °C 1011.1 hPa Calm     92 % 0 mm 5 W/m2
05:25 0.9 °C -0.3 °C 1011.1 hPa Calm     92 % 0 mm 7 W/m2
05:30 0.9 °C -0.3 °C 1011.1 hPa Calm     92 % 0 mm 11 W/m2
05:35 0.9 °C -0.3 °C 1011.1 hPa Calm     92 % 0 mm 12 W/m2
05:40 0.9 °C -0.1 °C 1011.1 hPa Calm     93 % 0 mm 14 W/m2
05:45 1 °C 0 °C 1010.7 hPa Calm     93 % 0 mm 16 W/m2
05:50 1.1 °C 0.1 °C 1010.7 hPa Calm     93 % 0 mm 18 W/m2
05:55 1.1 °C 0.1 °C 1010.7 hPa Calm     93 % 0 mm 21 W/m2
06:00 1.2 °C 0.2 °C 1010.7 hPa Calm     93 % 0 mm 23 W/m2
06:05 1.2 °C 0.2 °C 1010.7 hPa Calm     93 % 0 mm 25 W/m2
06:10 1.3 °C 0.3 °C 1010.7 hPa Calm     93 % 0 mm 26 W/m2
06:15 1.4 °C 0.4 °C 1010.4 hPa Calm     93 % 0 mm 83 W/m2
06:20 1.8 °C 0.9 °C 1010.4 hPa Calm     94 % 0 mm 97 W/m2
06:25 2.2 °C 1.5 °C 1010.4 hPa Calm     95 % 0 mm 60 W/m2
06:30 2.6 °C 1.9 °C 1010.4 hPa Calm     95 % 0 mm 102 W/m2
06:35 2.9 °C 2.1 °C 1010.4 hPa Calm     94 % 0 mm 109 W/m2
06:40 3.4 °C 2.5 °C 1010.4 hPa Calm     94 % 0 mm 134 W/m2
06:45 3.9 °C 3 °C 1010.4 hPa Calm     94 % 0 mm 67 W/m2
06:50 4.6 °C 3.4 °C 1010.4 hPa Calm     92 % 0 mm 155 W/m2
06:55 5.4 °C 4.2 °C 1010.4 hPa Calm     92 % 0 mm 156 W/m2
07:00 6 °C 4.3 °C 1010.4 hPa Calm     89 % 0 mm 185 W/m2
07:06 6.6 °C 4.6 °C 1010 hPa Calm     87 % 0 mm 199 W/m2
07:11 7.3 °C 4.8 °C 1010 hPa Calm     84 % 0 mm 213 W/m2
07:16 7.8 °C 4.9 °C 1010 hPa Calm     82 % 0 mm 227 W/m2
07:21 8.2 °C 4.8 °C 1010 hPa Calm     79 % 0 mm 243 W/m2
07:26 8.5 °C 4.9 °C 1010 hPa Calm     78 % 0 mm 260 W/m2
07:31 9.2 °C 5.2 °C 1010 hPa Calm     76 % 0 mm 271 W/m2
07:36 9.5 °C 5.3 °C 1010 hPa Calm   1.6 km/h 75 % 0 mm 287 W/m2
07:41 10.1 °C 5.5 °C 1010 hPa Calm   1.6 km/h 73 % 0 mm 302 W/m2
07:46 10.4 °C 5.4 °C 1009.7 hPa Calm   1.6 km/h 71 % 0 mm 315 W/m2
07:51 10.7 °C 5.4 °C 1009.7 hPa Calm   3.2 km/h 70 % 0 mm 329 W/m2
07:56 11.1 °C 6.1 °C 1009.7 hPa Calm   3.2 km/h 71 % 0 mm 345 W/m2
08:01 11.2 °C 6.1 °C 1009.7 hPa Calm   3.2 km/h 71 % 0 mm 359 W/m2
08:06 11 °C 5.9 °C 1009.7 hPa SSW 1.6 km/h 3.2 km/h 71 % 0 mm 371 W/m2
08:11 11 °C 6.2 °C 1009.7 hPa South 1.6 km/h 3.2 km/h 72 % 0 mm 385 W/m2
08:16 11 °C 5.9 °C 1009.7 hPa Calm   3.2 km/h 71 % 0 mm 403 W/m2
08:21 11.2 °C 6.1 °C 1009.7 hPa Calm   1.6 km/h 71 % 0 mm 415 W/m2
08:26 11.7 °C 6.4 °C 1009.7 hPa Calm   1.6 km/h 70 % 0 mm 431 W/m2
08:31 12.2 °C 6.4 °C 1009.4 hPa Calm   1.6 km/h 68 % 0 mm 439 W/m2
08:36 12.7 °C 6.5 °C 1009.4 hPa Calm   1.6 km/h 66 % 0 mm 457 W/m2
08:41 13.3 °C 6.6 °C 1009.4 hPa Calm   3.2 km/h 64 % 0 mm 473 W/m2
08:46 13.7 °C 6.3 °C 1009.4 hPa WNW 1.6 km/h 8 km/h 61 % 0 mm 489 W/m2
08:51 14.1 °C 6.7 °C 1009 hPa WNW 3.2 km/h 11.3 km/h 61 % 0 mm 501 W/m2
08:56 14.4 °C 6.5 °C 1009 hPa WNW 3.2 km/h 11.3 km/h 59 % 0 mm 508 W/m2
09:01 14.8 °C 6.6 °C 1009 hPa WNW 3.2 km/h 11.3 km/h 58 % 0 mm 522 W/m2
09:06 15 °C 6.3 °C 1009 hPa WNW 1.6 km/h 9.7 km/h 56 % 0 mm 540 W/m2
09:11 15.1 °C 6.4 °C 1009 hPa NW 1.6 km/h 9.7 km/h 56 % 0 mm 547 W/m2
09:12 15.1 °C 6.4 °C 1008.7 hPa NW 1.6 km/h 9.7 km/h 56 % 0 mm 550 W/m2
09:17 15.1 °C 6.4 °C 1008.7 hPa WNW 1.6 km/h 9.7 km/h 56 % 0 mm 563 W/m2
09:22 15.1 °C 6.9 °C 1008.7 hPa NW 3.2 km/h 9.7 km/h 58 % 0 mm 568 W/m2
09:27 15 °C 6.8 °C 1008.7 hPa NNE 1.6 km/h 9.7 km/h 58 % 0 mm 577 W/m2
09:32 15 °C 7.1 °C 1008.7 hPa East 1.6 km/h 8 km/h 59 % 0 mm 594 W/m2
09:37 14.9 °C 6.7 °C 1008.7 hPa ESE 1.6 km/h 8 km/h 58 % 0 mm 608 W/m2
09:42 15.1 °C 6.9 °C 1008.7 hPa East 1.6 km/h 8 km/h 58 % 0 mm 619 W/m2
09:47 15.3 °C 7.1 °C 1008.4 hPa East 1.6 km/h 11.3 km/h 58 % 0 mm 629 W/m2
09:52 15.4 °C 6.7 °C 1008.4 hPa ENE 1.6 km/h 11.3 km/h 56 % 0 mm 640 W/m2
09:57 15.4 °C 6.7 °C 1008.4 hPa East 1.6 km/h 8 km/h 56 % 0 mm 656 W/m2
10:02 15.5 °C 6.5 °C 1008.4 hPa ESE 1.6 km/h 8 km/h 55 % 0 mm 652 W/m2
10:07 15.3 °C 6.6 °C 1008.4 hPa SE 3.2 km/h 8 km/h 56 % 0 mm 659 W/m2
10:12 15.3 °C 6.3 °C 1008.4 hPa South 1.6 km/h 8 km/h 55 % 0 mm 687 W/m2
10:17 15.3 °C 6.3 °C 1008.4 hPa SSE 3.2 km/h 9.7 km/h 55 % 0 mm 698 W/m2
10:22 15.6 °C 6.6 °C 1008 hPa SSE 1.6 km/h 9.7 km/h 55 % 0 mm 712 W/m2
10:27 15.8 °C 6.2 °C 1008 hPa NNW 3.2 km/h 12.9 km/h 53 % 0 mm 729 W/m2
10:32 16 °C 6.4 °C 1008 hPa North 4.8 km/h 12.9 km/h 53 % 0 mm 728 W/m2
10:37 16.1 °C 6.2 °C 1008 hPa NNW 4.8 km/h 11.3 km/h 52 % 0 mm 744 W/m2
10:42 16.2 °C 6.1 °C 1008 hPa WNW 4.8 km/h 11.3 km/h 51 % 0 mm 763 W/m2
10:47 16 °C 6.2 °C 1008 hPa WSW 4.8 km/h 11.3 km/h 52 % 0 mm 765 W/m2
10:52 15.7 °C 6.4 °C 1008 hPa SW 4.8 km/h 9.7 km/h 54 % 0 mm 773 W/m2
10:57 15.9 °C 6.3 °C 1008 hPa ESE 3.2 km/h 9.7 km/h 53 % 0 mm 798 W/m2
11:02 16.2 °C 6.9 °C 1007.7 hPa ENE 4.8 km/h 16.1 km/h 54 % 0 mm 835 W/m2
11:07 16.3 °C 6.7 °C 1007.7 hPa North 6.4 km/h 17.7 km/h 53 % 0 mm 199 W/m2
11:12 15.9 °C 6.3 °C 1007.7 hPa North 8 km/h 17.7 km/h 53 % 0 mm 294 W/m2
11:17 15.7 °C 5.9 °C 1007.7 hPa NNE 6.4 km/h 16.1 km/h 52 % 0 mm 881 W/m2
11:22 15.6 °C 6.3 °C 1007.7 hPa NNE 6.4 km/h 16.1 km/h 54 % 0 mm 197 W/m2
11:27 15.4 °C 6.1 °C 1007.7 hPa NE 4.8 km/h 11.3 km/h 54 % 0 mm 193 W/m2
11:32 15.4 °C 5.9 °C 1007.3 hPa ENE 3.2 km/h 9.7 km/h 53 % 0 mm 902 W/m2
11:37 15.4 °C 5.9 °C 1007.3 hPa SSE 1.6 km/h 6.4 km/h 53 % 0 mm 932 W/m2
11:42 15.9 °C 6.3 °C 1007.3 hPa SSE 1.6 km/h 8 km/h 53 % 0 mm 960 W/m2
11:47 16.4 °C 6.2 °C 1007.3 hPa North 1.6 km/h 11.3 km/h 51 % 0 mm 935 W/m2
11:53 16.7 °C 6.2 °C 1007.3 hPa WNW 4.8 km/h 12.9 km/h 50 % 0 mm 264 W/m2
11:58 16.8 °C 6.3 °C 1007.3 hPa WNW 6.4 km/h 12.9 km/h 50 % 0 mm 341 W/m2
12:03 16.7 °C 5.9 °C 1007 hPa NNW 4.8 km/h 11.3 km/h 49 % 0 mm 937 W/m2
12:08 16.8 °C 6 °C 1007 hPa NW 4.8 km/h 11.3 km/h 49 % 0 mm 207 W/m2
12:13 16.9 °C 5.8 °C 1007 hPa NW 6.4 km/h 12.9 km/h 48 % 0 mm 294 W/m2
12:18 16.9 °C 5.8 °C 1007 hPa NW 3.2 km/h 12.9 km/h 48 % 0 mm 287 W/m2
12:23 16.9 °C 5.8 °C 1007 hPa SSW 1.6 km/h 8 km/h 48 % 0 mm 327 W/m2
12:28 16.8 °C 6 °C 1007 hPa South 1.6 km/h 8 km/h 49 % 0 mm 1000 W/m2
12:33 17.1 °C 6 °C 1007 hPa NE 1.6 km/h 11.3 km/h 48 % 0 mm 308 W/m2
12:38 16.6 °C 5.8 °C 1007 hPa NE 3.2 km/h 11.3 km/h 49 % 0 mm 313 W/m2
12:43 16.4 °C 5.9 °C 1007 hPa NE 3.2 km/h 9.7 km/h 50 % 0 mm 211 W/m2
12:48 16.5 °C 6.1 °C 1007 hPa NNW 3.2 km/h 9.7 km/h 50 % 0 mm 258 W/m2
12:53 16.2 °C 5.8 °C 1006.7 hPa North 3.2 km/h 9.7 km/h 50 % 0 mm 309 W/m2
12:58 16.2 °C 6.3 °C 1006.7 hPa East 1.6 km/h 6.4 km/h 52 % 0 mm 954 W/m2
13:03 16.6 °C 6.7 °C 1006.7 hPa ESE 1.6 km/h 9.7 km/h 52 % 0 mm 923 W/m2
13:08 16.9 °C 6.4 °C 1006.7 hPa East 4.8 km/h 14.5 km/h 50 % 0 mm 954 W/m2
13:13 17.1 °C 6.9 °C 1006.3 hPa East 6.4 km/h 14.5 km/h 51 % 0 mm 900 W/m2
13:18 17.3 °C 6.5 °C 1006.3 hPa East 4.8 km/h 11.3 km/h 49 % 0 mm 919 W/m2
13:23 17.5 °C 6.9 °C 1006.3 hPa East 1.6 km/h 9.7 km/h 50 % 0 mm 916 W/m2
13:28 17.6 °C 6.4 °C 1006.3 hPa East 3.2 km/h 9.7 km/h 48 % 0 mm 619 W/m2
13:33 17.8 °C 6.3 °C 1006.3 hPa NE 3.2 km/h 9.7 km/h 47 % 0 mm 854 W/m2
13:38 17.9 °C 6.4 °C 1006.3 hPa NE 3.2 km/h 12.9 km/h 47 % 0 mm 534 W/m2
13:43 18 °C 6.5 °C 1006 hPa SE 4.8 km/h 16.1 km/h 47 % 0 mm 962 W/m2
13:48 18.1 °C 6.3 °C 1006 hPa SSE 8 km/h 16.1 km/h 46 % 0 mm 963 W/m2
13:53 18.3 °C 6.8 °C 1006 hPa South 6.4 km/h 12.9 km/h 47 % 0 mm 962 W/m2
13:58 18.4 °C 6.6 °C 1006 hPa South 4.8 km/h 11.3 km/h 46 % 0 mm 912 W/m2
14:03 18.3 °C 6.2 °C 1006 hPa SSW 6.4 km/h 11.3 km/h 45 % 0 mm 833 W/m2
14:08 18.4 °C 6.6 °C 1005.6 hPa SW 4.8 km/h 11.3 km/h 46 % 0 mm 851 W/m2
14:13 18.5 °C 6.3 °C 1005.6 hPa SSW 4.8 km/h 14.5 km/h 45 % 0 mm 875 W/m2
14:19 18.2 °C 6.4 °C 1005.6 hPa South 8 km/h 14.5 km/h 46 % 0 mm 863 W/m2
14:22 18.1 °C 5.9 °C 1005.6 hPa South 8 km/h 14.5 km/h 45 % 0 mm 877 W/m2
14:27 18.1 °C 6.6 °C 1005.3 hPa ESE 6.4 km/h 16.1 km/h 47 % 0 mm 874 W/m2
14:32 18.3 °C 6.5 °C 1005.3 hPa North 6.4 km/h 16.1 km/h 46 % 0 mm 877 W/m2
14:37 18.6 °C 6.4 °C 1005.3 hPa WNW 6.4 km/h 12.9 km/h 45 % 0 mm 898 W/m2
14:42 18.8 °C 6.9 °C 1005.3 hPa West 4.8 km/h 12.9 km/h 46 % 0 mm 914 W/m2
14:43 18.8 °C 6.6 °C 1005.3 hPa West 4.8 km/h 12.9 km/h 45 % 0 mm 909 W/m2
14:48 18.9 °C 7 °C 1005.3 hPa NE 3.2 km/h 12.9 km/h 46 % 0 mm 889 W/m2
14:53 19.1 °C 6.6 °C 1005.3 hPa ENE 4.8 km/h 16.1 km/h 44 % 0 mm 872 W/m2
14:58 19 °C 6.4 °C 1005 hPa NE 8 km/h 16.1 km/h 44 % 0 mm 768 W/m2
15:01 18.9 °C 6.4 °C 1005 hPa NE 6.4 km/h 12.9 km/h 44 % 0 mm 243 W/m2
15:06 18.8 °C 6.3 °C 1005 hPa ENE 4.8 km/h 14.5 km/h 44 % 0 mm 253 W/m2
15:11 18.4 °C 5.9 °C 1005 hPa ENE 6.4 km/h 14.5 km/h 44 % 0 mm 281 W/m2
15:16 18.1 °C 5.7 °C 1005 hPa NE 4.8 km/h 12.9 km/h 44 % 0 mm 255 W/m2
15:21 17.9 °C 5.8 °C 1005 hPa NNE 3.2 km/h 11.3 km/h 45 % 0 mm 346 W/m2
15:26 17.8 °C 5.7 °C 1004.6 hPa NE 3.2 km/h 11.3 km/h 45 % 0 mm 309 W/m2
15:31 17.9 °C 5.4 °C 1004.6 hPa NE 4.8 km/h 11.3 km/h 44 % 0 mm 824 W/m2
15:36 18.1 °C 5.9 °C 1004.6 hPa NE 4.8 km/h 11.3 km/h 45 % 0 mm 577 W/m2
15:41 18.3 °C 5.8 °C 1004.3 hPa NE 3.2 km/h 11.3 km/h 44 % 0 mm 276 W/m2
15:46 18.4 °C 5.6 °C 1004.3 hPa ENE 1.6 km/h 9.7 km/h 43 % 0 mm 329 W/m2
15:51 18.4 °C 5.9 °C 1004.3 hPa East 4.8 km/h 12.9 km/h 44 % 0 mm 401 W/m2
15:52 18.3 °C 5.8 °C 1004.3 hPa East 4.8 km/h 12.9 km/h 44 % 0 mm 401 W/m2
15:57 18.3 °C 5.8 °C 1004.3 hPa East 8 km/h 19.3 km/h 44 % 0 mm 318 W/m2
16:02 18.2 °C 5.7 °C 1004.3 hPa ENE 6.4 km/h 19.3 km/h 44 % 0 mm 246 W/m2
16:07 18.1 °C 5.7 °C 1003.9 hPa NE 4.8 km/h 11.3 km/h 44 % 0 mm 274 W/m2
16:12 18.1 °C 5.7 °C 1003.9 hPa NE 3.2 km/h 11.3 km/h 44 % 0 mm 327 W/m2
16:17 18.3 °C 5.8 °C 1003.9 hPa South 4.8 km/h 17.7 km/h 44 % 0 mm 345 W/m2
16:22 18.5 °C 6 °C 1003.9 hPa South 6.4 km/h 17.7 km/h 44 % 0 mm 318 W/m2
16:27 18.4 °C 5.6 °C 1003.9 hPa East 4.8 km/h 12.9 km/h 43 % 0 mm 329 W/m2
16:32 18.2 °C 5.7 °C 1003.9 hPa ENE 4.8 km/h 12.9 km/h 44 % 0 mm 348 W/m2
16:37 18.3 °C 6.2 °C 1003.6 hPa ESE 4.8 km/h 11.3 km/h 45 % 0 mm 346 W/m2
16:42 18.5 °C 5.7 °C 1003.6 hPa SE 4.8 km/h 11.3 km/h 43 % 0 mm 301 W/m2
16:47 18.5 °C 5.3 °C 1003.6 hPa SE 6.4 km/h 12.9 km/h 42 % 0 mm 295 W/m2
16:52 18.5 °C 5.7 °C 1003.6 hPa SE 8 km/h 12.9 km/h 43 % 0 mm 353 W/m2
16:57 18.6 °C 5.8 °C 1003.3 hPa SE 6.4 km/h 12.9 km/h 43 % 0 mm 645 W/m2
17:02 18.9 °C 6.1 °C 1003.3 hPa SE 3.2 km/h 14.5 km/h 43 % 0 mm 552 W/m2
17:07 18.9 °C 5.7 °C 1003.3 hPa ESE 6.4 km/h 16.1 km/h 42 % 0 mm 230 W/m2
17:12 18.8 °C 5.6 °C 1003.3 hPa SE 6.4 km/h 16.1 km/h 42 % 0 mm 515 W/m2
17:17 18.8 °C 5.9 °C 1003.3 hPa SE 6.4 km/h 12.9 km/h 43 % 0 mm 436 W/m2
17:22 18.9 °C 5.7 °C 1002.9 hPa SE 4.8 km/h 12.9 km/h 42 % 0 mm 520 W/m2
17:27 19 °C 5.8 °C 1002.9 hPa ESE 4.8 km/h 14.5 km/h 42 % 0 mm 468 W/m2
17:32 18.9 °C 5.7 °C 1002.9 hPa SE 6.4 km/h 14.5 km/h 42 % 0 mm 478 W/m2
17:37 18.9 °C 5.7 °C 1002.9 hPa ESE 6.4 km/h 11.3 km/h 42 % 0 mm 478 W/m2
17:42 19 °C 5.8 °C 1002.9 hPa ESE 4.8 km/h 11.3 km/h 42 % 0 mm 445 W/m2
17:48 19 °C 5.4 °C 1002.9 hPa ESE 6.4 km/h 16.1 km/h 41 % 0 mm 406 W/m2
17:53 18.9 °C 5.3 °C 1002.6 hPa SE 8 km/h 16.1 km/h 41 % 0 mm 388 W/m2
17:58 18.8 °C 5.3 °C 1002.6 hPa SE 8 km/h 14.5 km/h 41 % 0 mm 364 W/m2
18:03 18.8 °C 5.6 °C 1002.6 hPa SE 6.4 km/h 14.5 km/h 42 % 0 mm 329 W/m2
18:08 18.7 °C 5.5 °C 1002.6 hPa SSE 6.4 km/h 19.3 km/h 42 % 0 mm 309 W/m2
18:13 18.6 °C 5.1 °C 1002.6 hPa SE 8 km/h 19.3 km/h 41 % 0 mm 302 W/m2
18:18 18.6 °C 5.4 °C 1002.6 hPa ESE 6.4 km/h 12.9 km/h 42 % 0 mm 290 W/m2
18:23 18.5 °C 5.3 °C 1002.3 hPa ESE 6.4 km/h 16.1 km/h 42 % 0 mm 272 W/m2
18:28 18.3 °C 5.2 °C 1002.3 hPa ESE 8 km/h 16.1 km/h 42 % 0 mm 260 W/m2
18:33 18.2 °C 5.1 °C 1002.3 hPa ESE 6.4 km/h 14.5 km/h 42 % 0 mm 248 W/m2
18:38 18.1 °C 5.3 °C 1002.3 hPa ESE 6.4 km/h 12.9 km/h 43 % 0 mm 225 W/m2
18:43 18.1 °C 5.3 °C 1002.3 hPa SE 8 km/h 14.5 km/h 43 % 0 mm 213 W/m2
18:48 18.1 °C 5.3 °C 1002.3 hPa SE 8 km/h 16.1 km/h 43 % 0 mm 200 W/m2
18:50 18.1 °C 5 °C 1002.3 hPa SE 9.7 km/h 16.1 km/h 42 % 0 mm 195 W/m2
18:55 18.1 °C 5.3 °C 1002.3 hPa SE 9.7 km/h 16.1 km/h 43 % 0 mm 178 W/m2
19:00 18 °C 5.2 °C 1002.3 hPa SE 8 km/h 12.9 km/h 43 % 0 mm 172 W/m2
19:05 17.9 °C 5.1 °C 1002.3 hPa SE 8 km/h 14.5 km/h 43 % 0 mm 142 W/m2
19:10 17.8 °C 4.7 °C 1002.3 hPa ESE 8 km/h 16.1 km/h 42 % 0 mm 132 W/m2
19:12 17.7 °C 4.9 °C 1002.3 hPa ESE 8 km/h 16.1 km/h 43 % 0 mm 84 W/m2
19:17 17.6 °C 4.9 °C 1002.3 hPa SE 8 km/h 16.1 km/h 43 % 0 mm 113 W/m2
19:22 17.5 °C 5.1 °C 1002.3 hPa SE 6.4 km/h 12.9 km/h 44 % 0 mm 113 W/m2
19:27 17.4 °C 5 °C 1002.3 hPa ESE 6.4 km/h 12.9 km/h 44 % 0 mm 104 W/m2
19:32 17.4 °C 5.3 °C 1002.3 hPa SE 4.8 km/h 11.3 km/h 45 % 0 mm 93 W/m2
19:37 17.2 °C 5.2 °C 1002.3 hPa SSE 3.2 km/h 8 km/h 45 % 0 mm 65 W/m2
19:42 17.1 °C 4.7 °C 1001.9 hPa SSE 4.8 km/h 12.9 km/h 44 % 0 mm 63 W/m2
19:47 16.9 °C 4.6 °C 1001.9 hPa SSE 6.4 km/h 12.9 km/h 44 % 0 mm 46 W/m2
19:52 16.7 °C 4.4 °C 1001.9 hPa SSE 6.4 km/h 11.3 km/h 44 % 0 mm 53 W/m2
19:57 16.6 °C 4.6 °C 1001.9 hPa SSE 6.4 km/h 11.3 km/h 45 % 0 mm 37 W/m2
20:02 16.4 °C 4.4 °C 1001.9 hPa SSE 4.8 km/h 11.3 km/h 45 % 0 mm 33 W/m2
20:07 16.2 °C 4.6 °C 1001.9 hPa South 4.8 km/h 9.7 km/h 46 % 0 mm 30 W/m2
20:12 16.1 °C 4.8 °C 1001.9 hPa SSE 3.2 km/h 9.7 km/h 47 % 0 mm 25 W/m2
20:17 15.8 °C 4.8 °C 1001.9 hPa SSE 4.8 km/h 11.3 km/h 48 % 0 mm 21 W/m2
20:22 15.6 °C 4.9 °C 1001.9 hPa SSE 6.4 km/h 12.9 km/h 49 % 0 mm 19 W/m2
20:27 15.4 °C 5 °C 1001.9 hPa SSE 4.8 km/h 12.9 km/h 50 % 0 mm 16 W/m2
20:32 15.3 °C 5.2 °C 1001.9 hPa SSE 1.6 km/h 8 km/h 51 % 0 mm 12 W/m2
20:37 15.1 °C 5.1 °C 1001.9 hPa SSE 3.2 km/h 8 km/h 51 % 0 mm 11 W/m2
20:42 15 °C 5.2 °C 1001.9 hPa SSE 3.2 km/h 12.9 km/h 52 % 0 mm 7 W/m2
20:47 14.8 °C 5.1 °C 1001.9 hPa SSE 3.2 km/h 12.9 km/h 52 % 0 mm 5 W/m2
20:52 14.7 °C 5.2 °C 1001.9 hPa SSE 1.6 km/h 8 km/h 53 % 0 mm 5 W/m2
20:57 14.6 °C 5.1 °C 1001.9 hPa South 3.2 km/h 8 km/h 53 % 0 mm 0 W/m2
21:02 14.4 °C 4.9 °C 1001.9 hPa South 3.2 km/h 8 km/h 53 % 0 mm 0 W/m2
21:07 14.3 °C 5.1 °C 1001.9 hPa South 1.6 km/h 8 km/h 54 % 0 mm 0 W/m2
21:12 14.1 °C 5.4 °C 1001.9 hPa SSW 1.6 km/h 6.4 km/h 56 % 0 mm 0 W/m2
21:17 13.8 °C 5.2 °C 1001.9 hPa Calm   6.4 km/h 56 % 0 mm 0 W/m2
21:23 13.6 °C 5.2 °C 1001.9 hPa SSW 1.6 km/h 6.4 km/h 57 % 0 mm 0 W/m2
21:27 13.4 °C 5.1 °C 1001.9 hPa South 1.6 km/h 6.4 km/h 57 % 0 mm 0 W/m2
21:32 13.3 °C 5.2 °C 1001.9 hPa South 1.6 km/h 8 km/h 58 % 0 mm 0 W/m2
21:38 13.2 °C 5.1 °C 1001.9 hPa South 1.6 km/h 8 km/h 58 % 0 mm 0 W/m2
21:43 13.1 °C 5.3 °C 1001.9 hPa South 1.6 km/h 6.4 km/h 59 % 0 mm 0 W/m2
21:48 12.9 °C 5.1 °C 1001.9 hPa South 1.6 km/h 6.4 km/h 59 % 0 mm 0 W/m2
21:53 12.7 °C 5.1 °C 1001.9 hPa South 1.6 km/h 8 km/h 60 % 0 mm 0 W/m2
21:58 12.6 °C 5.3 °C 1001.9 hPa Calm   8 km/h 61 % 0 mm 0 W/m2
22:03 12.3 °C 5.2 °C 1001.9 hPa Calm   3.2 km/h 62 % 0 mm 0 W/m2
22:08 12.1 °C 5.1 °C 1001.9 hPa Calm   1.6 km/h 62 % 0 mm 0 W/m2
22:13 11.9 °C 5.1 °C 1001.9 hPa Calm   1.6 km/h 63 % 0 mm 0 W/m2
22:18 11.7 °C 5.1 °C 1001.9 hPa Calm   1.6 km/h 64 % 0 mm 0 W/m2
22:23 11.5 °C 5.4 °C 1001.9 hPa Calm   1.6 km/h 66 % 0 mm 0 W/m2
22:28 11.3 °C 5.4 °C 1001.9 hPa Calm     67 % 0 mm 0 W/m2
22:33 11.1 °C 5.2 °C 1001.9 hPa Calm     67 % 0 mm 0 W/m2
22:38 10.8 °C 5.1 °C 1001.9 hPa Calm   1.6 km/h 68 % 0 mm 0 W/m2
22:43 10.7 °C 5.1 °C 1001.9 hPa South 1.6 km/h 3.2 km/h 68 % 0 mm 0 W/m2
22:48 10.6 °C 5.2 °C 1001.9 hPa South 1.6 km/h 4.8 km/h 69 % 0 mm 0 W/m2
22:53 10.5 °C 5.1 °C 1001.9 hPa South 1.6 km/h 4.8 km/h 69 % 0 mm 0 W/m2
22:58 10.5 °C 5.1 °C 1001.9 hPa SSE 3.2 km/h 9.7 km/h 69 % 0 mm 0 W/m2
23:03 10.4 °C 4.9 °C 1001.9 hPa SSE 1.6 km/h 9.7 km/h 69 % 0 mm 0 W/m2
23:08 10.4 °C 4.9 °C 1001.9 hPa Calm   1.6 km/h 69 % 0 mm 0 W/m2
23:13 10.3 °C 5.1 °C 1001.9 hPa Calm   4.8 km/h 70 % 0 mm 0 W/m2
23:18 10.2 °C 4.9 °C 1001.9 hPa Calm   4.8 km/h 70 % 0 mm 0 W/m2
23:23 10.1 °C 5.1 °C 1001.9 hPa Calm   6.4 km/h 71 % 0 mm 0 W/m2
23:28 10.1 °C 5.1 °C 1001.9 hPa Calm   6.4 km/h 71 % 0 mm 0 W/m2
23:33 9.9 °C 4.9 °C 1001.6 hPa Calm   3.2 km/h 71 % 0 mm 0 W/m2
23:38 9.9 °C 5.1 °C 1001.6 hPa Calm   3.2 km/h 72 % 0 mm 0 W/m2
23:44 9.8 °C 5 °C 1001.9 hPa Calm   3.2 km/h 72 % 0 mm 0 W/m2
23:49 9.8 °C 5 °C 1001.9 hPa Calm   3.2 km/h 72 % 0 mm 0 W/m2
23:54 9.9 °C 5.3 °C 1001.9 hPa South 1.6 km/h 9.7 km/h 73 % 0 mm 0 W/m2
23:59 10.1 °C 5.5 °C 1001.6 hPa South 3.2 km/h 11.3 km/h 73 % 0 mm 0 W/m2
Delerius-Weather
Compliments of Weather Underground - 2.25 mb

Data updates at regular intervals.